Time,TemperatureF,DewpointF,PressureIn,WindDirection,WindDirectionDegrees,WindSpeedMPH,WindSpeedGustMPH,Humidity,HourlyPrecipIn,Conditions,Clouds,dailyrainin,SolarRadiationWatts/m^2,SoftwareType,DateUTC
2013-08-24 00:03:00,67.0,64.0,-100.00,North,353,2.0,5.0,91,0.00,,,0.00,0.000000,,2013-08-24 05:03:00,
2013-08-24 00:43:00,67.0,62.0,-100.00,NNW,332,3.0,6.0,84,0.00,,,0.00,0.000000,,2013-08-24 05:43:00,
2013-08-24 00:53:00,67.0,62.0,-100.00,NNW,332,3.0,6.0,84,0.00,,,0.00,0.000000,,2013-08-24 05:53:00,
2013-08-24 01:02:00,67.0,62.0,-100.00,NNW,332,3.0,6.0,84,0.00,,,0.00,0.000000,,2013-08-24 06:02:00,
2013-08-24 01:42:00,65.0,60.0,-100.00,NNW,330,3.0,6.0,83,0.00,,,0.00,0.000000,,2013-08-24 06:42:00,
2013-08-24 01:52:00,65.0,60.0,-100.00,NNW,330,3.0,6.0,83,0.00,,,0.00,0.000000,,2013-08-24 06:52:00,
2013-08-24 02:02:00,65.0,60.0,-100.00,NNW,330,3.0,6.0,83,0.00,,,0.00,0.000000,,2013-08-24 07:02:00,
2013-08-24 02:43:00,64.0,60.0,-100.00,NNE,13,1.0,6.0,87,0.00,,,0.00,0.000000,,2013-08-24 07:43:00,
2013-08-24 02:53:00,64.0,60.0,-100.00,NNE,13,1.0,6.0,87,0.00,,,0.00,0.000000,,2013-08-24 07:53:00,
2013-08-24 03:02:00,64.0,60.0,-100.00,NNE,13,1.0,6.0,87,0.00,,,0.00,0.000000,,2013-08-24 08:02:00,
2013-08-24 03:42:00,66.0,60.0,-100.00,NW,325,3.0,6.0,80,0.00,,,0.00,0.000000,,2013-08-24 08:42:00,
2013-08-24 03:52:00,66.0,60.0,-100.00,NW,325,3.0,6.0,80,0.00,,,0.00,0.000000,,2013-08-24 08:52:00,
2013-08-24 04:01:00,66.0,60.0,-100.00,NW,325,3.0,6.0,80,0.00,,,0.00,0.000000,,2013-08-24 09:01:00,
2013-08-24 04:44:00,65.0,59.0,-100.00,NNW,328,4.0,8.0,81,0.00,,,0.00,0.000000,,2013-08-24 09:44:00,
2013-08-24 04:53:00,65.0,59.0,-100.00,NNW,328,4.0,8.0,81,0.00,,,0.00,0.000000,,2013-08-24 09:53:00,
2013-08-24 05:03:00,65.0,59.0,-100.00,NNW,328,4.0,8.0,81,0.00,,,0.00,0.000000,,2013-08-24 10:03:00,
2013-08-24 05:42:00,66.0,56.0,-100.00,NNW,330,4.0,7.0,71,0.00,,,0.00,0.000000,,2013-08-24 10:42:00,
2013-08-24 05:53:00,66.0,56.0,-100.00,NNW,330,4.0,7.0,71,0.00,,,0.00,0.000000,,2013-08-24 10:53:00,
2013-08-24 06:02:00,66.0,56.0,-100.00,NNW,330,4.0,7.0,71,0.00,,,0.00,0.000000,,2013-08-24 11:02:00,
2013-08-24 06:42:00,66.0,53.0,-100.00,NNW,331,6.0,10.0,63,0.00,,,0.00,0.000000,,2013-08-24 11:42:00,
2013-08-24 06:52:00,66.0,53.0,-100.00,NNW,331,6.0,10.0,63,0.00,,,0.00,0.000000,,2013-08-24 11:52:00,
2013-08-24 07:02:00,66.0,53.0,-100.00,NNW,331,6.0,10.0,63,0.00,,,0.00,0.000000,,2013-08-24 12:02:00,
2013-08-24 07:42:00,66.0,51.0,-100.00,NW,326,6.0,13.0,59,0.00,,,0.00,15.000000,,2013-08-24 12:42:00,
2013-08-24 07:52:00,66.0,51.0,-100.00,NW,326,6.0,13.0,59,0.00,,,0.00,15.000000,,2013-08-24 12:52:00,
2013-08-24 08:02:00,66.0,51.0,-100.00,NW,326,6.0,13.0,59,0.00,,,0.00,15.000000,,2013-08-24 13:02:00,
2013-08-24 08:42:00,69.0,50.0,-100.00,NNW,333,5.0,11.0,50,0.00,,,0.00,114.000000,,2013-08-24 13:42:00,
2013-08-24 08:52:00,69.0,50.0,-100.00,NNW,333,5.0,11.0,50,0.00,,,0.00,114.000000,,2013-08-24 13:52:00,
2013-08-24 09:02:00,69.0,50.0,-100.00,NNW,333,5.0,11.0,50,0.00,,,0.00,114.000000,,2013-08-24 14:02:00,
2013-08-24 09:42:00,74.0,49.0,-100.00,NNW,343,5.0,11.0,42,0.00,,,0.00,273.000000,,2013-08-24 14:42:00,
2013-08-24 09:52:00,74.0,49.0,-100.00,NNW,343,5.0,11.0,42,0.00,,,0.00,273.000000,,2013-08-24 14:52:00,
2013-08-24 10:01:00,74.0,49.0,-100.00,NNW,343,5.0,11.0,42,0.00,,,0.00,273.000000,,2013-08-24 15:01:00,
2013-08-24 10:45:00,69.0,54.0,-100.00,NNE,14,3.0,13.0,58,0.00,,,0.00,164.000000,,2013-08-24 15:45:00,
2013-08-24 10:54:00,69.0,54.0,-100.00,NNE,14,3.0,13.0,58,0.00,,,0.00,164.000000,,2013-08-24 15:54:00,
2013-08-24 11:04:00,69.0,54.0,-100.00,NNE,14,3.0,13.0,58,0.00,,,0.00,164.000000,,2013-08-24 16:04:00,
2013-08-24 11:42:00,62.0,60.0,-100.00,NW,307,7.0,14.0,92,0.20,,,0.20,21.000000,,2013-08-24 16:42:00,
2013-08-24 11:53:00,62.0,60.0,-100.00,NW,307,7.0,14.0,92,0.20,,,0.20,21.000000,,2013-08-24 16:53:00,
2013-08-24 12:02:00,62.0,60.0,-100.00,NW,307,7.0,14.0,92,0.20,,,0.20,21.000000,,2013-08-24 17:02:00,
2013-08-24 12:42:00,70.0,63.0,-100.00,NW,310,8.0,14.0,78,0.00,,,0.20,322.000000,,2013-08-24 17:42:00,
2013-08-24 12:52:00,70.0,63.0,-100.00,NW,310,8.0,14.0,78,0.00,,,0.20,322.000000,,2013-08-24 17:52:00,
2013-08-24 13:02:00,70.0,63.0,-100.00,NW,310,8.0,14.0,78,0.00,,,0.20,322.000000,,2013-08-24 18:02:00,
2013-08-24 13:42:00,78.0,65.0,-100.00,NW,322,9.0,19.0,64,0.00,,,0.20,733.000000,,2013-08-24 18:42:00,
2013-08-24 13:53:00,78.0,65.0,-100.00,NW,322,9.0,19.0,64,0.00,,,0.20,733.000000,,2013-08-24 18:53:00,
2013-08-24 14:01:00,78.0,65.0,-100.00,NW,322,9.0,19.0,64,0.00,,,0.20,733.000000,,2013-08-24 19:01:00,
2013-08-24 14:42:00,81.0,65.0,-100.00,NNW,337,9.0,18.0,59,0.00,,,0.20,703.000000,,2013-08-24 19:42:00,
2013-08-24 14:52:00,81.0,65.0,-100.00,NNW,337,9.0,18.0,59,0.00,,,0.20,703.000000,,2013-08-24 19:52:00,
2013-08-24 15:02:00,81.0,65.0,-100.00,NNW,337,9.0,18.0,59,0.00,,,0.20,703.000000,,2013-08-24 20:02:00,
2013-08-24 15:42:00,84.0,68.0,-100.00,NNW,338,9.0,18.0,59,0.00,,,0.20,717.000000,,2013-08-24 20:42:00,
2013-08-24 15:52:00,84.0,68.0,-100.00,NNW,338,9.0,18.0,59,0.00,,,0.20,717.000000,,2013-08-24 20:52:00,
2013-08-24 16:02:00,84.0,68.0,-100.00,NNW,338,9.0,18.0,59,0.00,,,0.20,717.000000,,2013-08-24 21:02:00,
2013-08-24 16:43:00,86.0,68.0,-100.00,NNW,345,8.0,17.0,56,0.00,,,0.20,626.000000,,2013-08-24 21:43:00,
2013-08-24 16:55:00,86.0,68.0,-100.00,NNW,345,8.0,17.0,56,0.00,,,0.20,626.000000,,2013-08-24 21:55:00,
2013-08-24 17:04:00,86.0,68.0,-100.00,NNW,345,8.0,17.0,56,0.00,,,0.20,626.000000,,2013-08-24 22:04:00,
2013-08-24 17:43:00,86.0,69.0,-100.00,NNW,346,8.0,18.0,57,0.00,,,0.20,490.000000,,2013-08-24 22:43:00,
2013-08-24 17:53:00,86.0,69.0,-100.00,NNW,346,8.0,18.0,57,0.00,,,0.20,490.000000,,2013-08-24 22:53:00,
2013-08-24 18:03:00,86.0,69.0,-100.00,NNW,346,8.0,18.0,57,0.00,,,0.20,490.000000,,2013-08-24 23:03:00,
2013-08-24 18:43:00,86.0,69.0,-100.00,North,353,6.0,19.0,58,0.00,,,0.20,329.000000,,2013-08-24 23:43:00,
2013-08-24 18:53:00,86.0,69.0,-100.00,North,353,6.0,19.0,58,0.00,,,0.20,329.000000,,2013-08-24 23:53:00,
2013-08-24 19:02:00,86.0,69.0,-100.00,North,353,6.0,19.0,58,0.00,,,0.20,329.000000,,2013-08-25 00:02:00,
2013-08-24 19:42:00,81.0,69.0,-100.00,NNW,344,6.0,14.0,68,0.00,,,0.20,101.000000,,2013-08-25 00:42:00,
2013-08-24 19:52:00,81.0,69.0,-100.00,NNW,344,6.0,14.0,68,0.00,,,0.20,101.000000,,2013-08-25 00:52:00,
2013-08-24 20:01:00,81.0,69.0,-100.00,NNW,344,6.0,14.0,68,0.00,,,0.20,101.000000,,2013-08-25 01:01:00,
2013-08-24 20:42:00,79.0,70.0,-100.00,NNW,341,5.0,11.0,74,0.00,,,0.20,19.000000,,2013-08-25 01:42:00,
2013-08-24 20:52:00,79.0,70.0,-100.00,NNW,341,5.0,11.0,74,0.00,,,0.20,19.000000,,2013-08-25 01:52:00,
2013-08-24 21:02:00,79.0,70.0,-100.00,NNW,341,5.0,11.0,74,0.00,,,0.20,19.000000,,2013-08-25 02:02:00,
2013-08-24 21:42:00,78.0,70.0,-100.00,NNW,342,6.0,14.0,76,0.00,,,0.20,0.000000,,2013-08-25 02:42:00,
2013-08-24 21:52:00,78.0,70.0,-100.00,NNW,342,6.0,14.0,76,0.00,,,0.20,0.000000,,2013-08-25 02:52:00,
2013-08-24 22:02:00,78.0,70.0,-100.00,NNW,342,6.0,14.0,76,0.00,,,0.20,0.000000,,2013-08-25 03:02:00,
2013-08-24 22:44:00,78.0,70.0,-100.00,NNW,340,8.0,16.0,77,0.00,,,0.20,0.000000,,2013-08-25 03:44:00,
2013-08-24 22:54:00,78.0,70.0,-100.00,NNW,340,8.0,16.0,77,0.00,,,0.20,0.000000,,2013-08-25 03:54:00,
2013-08-24 23:02:00,-999.0,-99.9,-100.00,NNW,340,8.0,16.0,-999,-99.99,,,-99.99,0.000000,,2013-08-25 04:02:00,
2013-08-24 23:44:00,77.0,70.0,-100.00,NNW,344,7.0,15.0,78,0.00,,,0.20,0.000000,,2013-08-25 04:44:00,
2013-08-24 23:54:00,77.0,70.0,-100.00,NNW,344,7.0,15.0,78,0.00,,,0.20,0.000000,,2013-08-25 04:54:00,